Time;durP1;ratioP1;P1;durP2;ratioP2;P2;SDS_P1;SDS_P2;PMS_P1;PMS_P2;Temp;Humidity;BMP_temperature;BMP_pressure;BME280_temperature;BME280_humidity;BME280_pressure;Samples;Min_cycle;Max_cycle;Signal;HPM_P1;HPM_P2
2022/09/25 00:01:41;;;;;;;;;;;;;;;24.60;nan;100561.91;5036024;28;1283;-42
2022/09/25 00:04:08;;;;;;;;;;;;;;;24.62;nan;100567.13;5036069;28;752;-42
2022/09/25 00:06:35;;;;;;;;;;;;;;;24.60;nan;100561.06;5036061;28;1229;-42
2022/09/25 00:09:02;;;;;;;;;;;;;;;24.58;nan;100563.03;5036303;28;895;-43
2022/09/25 00:11:32;;;;;;;;;;;;;;;24.54;nan;100590.88;5035386;28;1891;-42
2022/09/25 00:13:59;;;;;;;;;;;;;;;24.52;nan;100600.81;5035524;28;818;-42
2022/09/25 00:16:28;;;;;;;;;;;;;;;24.53;nan;100597.19;5035971;28;1212;-43
2022/09/25 00:21:42;;;;;;;;;;;;;;;24.53;nan;100602.50;5034198;28;1299;-43
2022/09/25 00:24:10;;;;;;;;;;;;;;;24.53;nan;100610.50;5035541;28;1086;-42
2022/09/25 00:26:38;;;;;;;;;;;;;;;24.54;nan;100625.47;5035706;28;1300;-42
2022/09/25 00:29:06;;;;;;;;;;;;;;;24.54;nan;100625.47;5035609;28;748;-41
2022/09/25 00:31:33;;;;;;;;;;;;;;;24.51;nan;100620.41;5034774;28;1995;-42
2022/09/25 00:34:02;;;;;;;;;;;;;;;24.54;nan;100618.34;5035753;28;899;-43
2022/09/25 00:36:28;;;;;;;;;;;;;;;24.55;nan;100621.84;5035349;28;1293;-43
2022/09/25 00:38:55;;;;;;;;;;;;;;;24.53;nan;100629.13;5035572;28;767;-43
2022/09/25 00:41:24;;;;;;;;;;;;;;;24.47;nan;100628.66;5035164;28;1204;-43
2022/09/25 00:43:53;;;;;;;;;;;;;;;24.47;nan;100625.16;5035548;28;884;-43
2022/09/25 00:46:23;;;;;;;;;;;;;;;24.46;nan;100619.00;5035126;28;1203;-43
2022/09/25 00:48:54;;;;;;;;;;;;;;;24.43;nan;100597.94;5035483;28;763;-43
2022/09/25 00:51:27;;;;;;;;;;;;;;;24.43;nan;100597.09;5034781;28;1906;-43
2022/09/25 00:54:00;;;;;;;;;;;;;;;24.42;nan;100593.59;5035126;28;664;-43
2022/09/25 00:56:33;;;;;;;;;;;;;;;24.43;nan;100583.78;5035006;28;1353;-43
2022/09/25 00:59:00;;;;;;;;;;;;;;;24.42;nan;100580.28;5035525;28;942;-43
2022/09/25 01:01:27;;;;;;;;;;;;;;;24.43;nan;100576.66;5035210;28;1289;-42
2022/09/25 01:03:55;;;;;;;;;;;;;;;24.40;nan;100568.91;5035074;28;705;-42
2022/09/25 01:06:24;;;;;;;;;;;;;;;24.41;nan;100573.25;5034705;28;1276;-42
2022/09/25 01:08:51;;;;;;;;;;;;;;;24.37;nan;100569.19;5034890;28;1039;-43
2022/09/25 01:11:17;;;;;;;;;;;;;;;24.37;nan;100566.50;5033980;28;2118;-41
2022/09/25 01:13:44;;;;;;;;;;;;;;;24.40;nan;100566.25;5034949;28;1078;-43
2022/09/25 01:16:34;;;;;;;;;;;;;;;24.39;nan;100559.25;5035277;28;1291;-42
2022/09/25 01:19:06;;;;;;;;;;;;;;;24.39;nan;100559.25;5034908;28;681;-42
2022/09/25 01:21:38;;;;;;;;;;;;;;;24.42;nan;100548.34;5034442;28;1475;-42
2022/09/25 01:24:23;;;;;;;;;;;;;;;24.43;nan;100552.69;5034562;28;644;-43
2022/09/25 01:27:08;;;;;;;;;;;;;;;24.41;nan;100551.97;5034788;28;1231;-42
2022/09/25 01:29:47;;;;;;;;;;;;;;;24.39;nan;100548.59;5034445;28;752;-42
2022/09/25 01:32:26;;;;;;;;;;;;;;;24.41;nan;100545.78;5034687;28;1973;-41
2022/09/25 01:34:58;;;;;;;;;;;;;;;24.39;nan;100529.94;5034784;28;1366;-41
2022/09/25 01:37:31;;;;;;;;;;;;;;;24.40;nan;100526.31;5034528;28;1018;-42
2022/09/25 01:40:04;;;;;;;;;;;;;;;24.42;nan;100526.19;5034422;28;1322;-43
2022/09/25 01:42:43;;;;;;;;;;;;;;;24.43;nan;100526.06;5033644;28;1110;-42
2022/09/25 01:45:15;;;;;;;;;;;;;;;24.43;nan;100528.72;5034249;28;1239;-41
2022/09/25 01:47:45;;;;;;;;;;;;;;;24.42;nan;100520.84;5034593;28;1005;-40
2022/09/25 01:50:16;;;;;;;;;;;;;;;24.42;nan;100524.38;5034089;28;1358;-41
2022/09/25 01:52:46;;;;;;;;;;;;;;;24.41;nan;100521.81;5034381;28;1918;-42
2022/09/25 01:55:23;;;;;;;;;;;;;;;24.41;nan;100516.50;5033943;28;1284;-41
2022/09/25 01:57:54;;;;;;;;;;;;;;;24.40;nan;100507.69;5034395;28;1144;-42
2022/09/25 02:00:22;;;;;;;;;;;;;;;24.39;nan;100513.13;5033898;28;1288;-41
2022/09/25 02:03:00;;;;;;;;;;;;;;;24.37;nan;100512.44;5034214;28;1038;-42
2022/09/25 02:05:30;;;;;;;;;;;;;;;24.38;nan;100509.63;5033800;28;1290;-42
2022/09/25 02:08:02;;;;;;;;;;;;;;;24.36;nan;100505.41;5033643;28;1031;-42
2022/09/25 02:10:38;;;;;;;;;;;;;;;24.36;nan;100508.91;5033984;28;1218;-42
2022/09/25 02:13:09;;;;;;;;;;;;;;;24.35;nan;100507.22;5033889;28;1910;-43
2022/09/25 02:15:38;;;;;;;;;;;;;;;24.36;nan;100505.41;5065626;28;1275;-42
2022/09/25 02:20:59;;;;;;;;;;;;;;;24.35;nan;100520.53;5034043;28;1222;-42
2022/09/25 02:23:41;;;;;;;;;;;;;;;24.36;nan;100526.69;5034225;28;1150;-41
2022/09/25 02:26:13;;;;;;;;;;;;;;;24.37;nan;100523.06;5033855;28;1274;-43
2022/09/25 02:28:40;;;;;;;;;;;;;;;24.37;nan;100534.56;5033988;28;1171;-43
2022/09/25 02:31:09;;;;;;;;;;;;;;;24.37;nan;100529.25;5032789;28;1981;-40
2022/09/25 02:33:36;;;;;;;;;;;;;;;24.36;nan;100532.88;5033397;28;1256;-41
2022/09/25 02:36:03;;;;;;;;;;;;;;;24.35;nan;100536.50;5033236;28;1176;-42
2022/09/25 02:38:32;;;;;;;;;;;;;;;24.37;nan;100544.38;5033814;28;1074;-42
2022/09/25 02:41:08;;;;;;;;;;;;;;;24.37;nan;100539.91;5033564;28;1302;-42
2022/09/25 02:43:44;;;;;;;;;;;;;;;24.38;nan;100541.56;5033772;28;1188;-42
2022/09/25 02:46:38;;;;;;;;;;;;;;;24.37;nan;100537.22;5033528;28;1264;-42
2022/09/25 02:49:14;;;;;;;;;;;;;;;24.37;nan;100547.88;5033513;28;697;-42
2022/09/25 02:51:46;;;;;;;;;;;;;;;24.37;nan;100539.03;5033011;28;1910;-42
2022/09/25 02:54:12;;;;;;;;;;;;;;;24.35;nan;100536.50;5033091;28;721;-42
2022/09/25 02:56:42;;;;;;;;;;;;;;;24.35;nan;100531.16;5033306;28;1291;-42
2022/09/25 02:59:14;;;;;;;;;;;;;;;24.35;nan;100544.47;5033327;28;731;-42
2022/09/25 03:01:41;;;;;;;;;;;;;;;24.34;nan;100531.31;5033220;28;1371;-43
2022/09/25 03:04:09;;;;;;;;;;;;;;;24.35;nan;100538.31;5048315;28;748;-42
2022/09/25 03:06:37;;;;;;;;;;;;;;;24.35;nan;100544.47;5033262;28;1218;-41
2022/09/25 03:09:07;;;;;;;;;;;;;;;24.35;nan;100541.81;5033322;28;898;-41
2022/09/25 03:11:42;;;;;;;;;;;;;;;24.35;nan;100546.28;5032018;28;1906;-42
2022/09/25 03:14:09;;;;;;;;;;;;;;;24.32;nan;100542.06;5033026;28;660;-42
2022/09/25 03:16:35;;;;;;;;;;;;;;;24.33;nan;100550.91;5032875;28;1394;-42
2022/09/25 03:19:02;;;;;;;;;;;;;;;24.32;nan;100547.41;5032868;28;815;-42
2022/09/25 03:21:29;;;;;;;;;;;;;;;24.34;nan;100548.13;5032802;28;1209;-42
2022/09/25 03:23:55;;;;;;;;;;;;;;;24.32;nan;100551.88;5033212;28;907;-44
2022/09/25 03:26:23;;;;;;;;;;;;;;;24.33;nan;100553.56;5032969;28;1205;-41
2022/09/25 03:28:50;;;;;;;;;;;;;;;24.32;nan;100549.22;5032817;28;1086;-43
2022/09/25 03:31:17;;;;;;;;;;;;;;;24.33;nan;100542.94;5032687;28;1987;-42
2022/09/25 03:33:44;;;;;;;;;;;;;;;24.31;nan;100537.75;5033302;28;985;-43
2022/09/25 03:36:19;;;;;;;;;;;;;;;24.29;nan;100539.66;5032817;28;1335;-42
2022/09/25 03:38:47;;;;;;;;;;;;;;;24.26;nan;100539.94;5032612;28;827;-42
2022/09/25 03:41:15;;;;;;;;;;;;;;;24.25;nan;100535.59;5032568;28;1209;-42
2022/09/25 03:43:42;;;;;;;;;;;;;;;24.21;nan;100538.63;5033107;28;1168;-42
2022/09/25 03:46:10;;;;;;;;;;;;;;;24.23;nan;100548.16;5032599;28;1294;-42
2022/09/25 03:48:38;;;;;;;;;;;;;;;24.22;nan;100548.31;5033194;28;1171;-43
2022/09/25 03:51:05;;;;;;;;;;;;;;;24.19;nan;100546.75;5032437;28;1408;-40
2022/09/25 03:53:32;;;;;;;;;;;;;;;24.18;nan;100547.72;5032860;28;1915;-42
2022/09/25 03:55:59;;;;;;;;;;;;;;;24.20;nan;100547.56;5047932;28;1221;-42
2022/09/25 03:58:26;;;;;;;;;;;;;;;24.18;nan;100539.72;5033013;28;1141;-43
2022/09/25 04:00:56;;;;;;;;;;;;;;;24.18;nan;100537.06;5032681;28;1216;-42
2022/09/25 04:03:27;;;;;;;;;;;;;;;24.18;nan;100536.22;5032597;28;1616;-43
2022/09/25 04:05:54;;;;;;;;;;;;;;;24.15;nan;100539.97;5033199;28;1294;-42
2022/09/25 04:08:24;;;;;;;;;;;;;;;24.10;nan;100535.97;5036248;28;1050;-42
2022/09/25 04:10:51;;;;;;;;;;;;;;;24.10;nan;100544.81;5035527;28;1304;-41
2022/09/25 04:13:18;;;;;;;;;;;;;;;24.12;nan;100542.03;5035588;28;1973;-43
2022/09/25 04:15:45;;;;;;;;;;;;;;;24.14;nan;100546.25;5036163;28;1204;-42
2022/09/25 04:18:13;;;;;;;;;;;;;;;24.17;nan;100543.34;5036514;28;1109;-42
2022/09/25 04:20:40;;;;;;;;;;;;;;;24.18;nan;100547.72;5036098;28;1204;-42
2022/09/25 04:23:07;;;;;;;;;;;;;;;24.17;nan;100546.00;5036087;28;1119;-42
2022/09/25 04:25:34;;;;;;;;;;;;;;;24.13;nan;100549.06;5036091;28;1209;-43
2022/09/25 04:28:00;;;;;;;;;;;;;;;24.10;nan;100550.13;5036157;28;943;-43
2022/09/25 04:30:28;;;;;;;;;;;;;;;24.08;nan;100554.72;5035554;28;1280;-43
2022/09/25 04:35:40;;;;;;;;;;;;;;;24.15;nan;100555.94;5035955;28;1370;-42
2022/09/25 04:38:08;;;;;;;;;;;;;;;24.12;nan;100556.19;5035791;28;1015;-43
2022/09/25 04:40:36;;;;;;;;;;;;;;;24.08;nan;100554.72;5035509;28;1165;-43
2022/09/25 04:43:03;;;;;;;;;;;;;;;24.07;nan;100558.38;5035711;28;984;-43
2022/09/25 04:45:32;;;;;;;;;;;;;;;24.08;nan;100557.38;5035512;28;1269;-43
2022/09/25 04:47:59;;;;;;;;;;;;;;;24.05;nan;100554.97;5035639;28;1081;-43
2022/09/25 04:50:27;;;;;;;;;;;;;;;24.03;nan;100556.06;5035108;28;1667;-42
2022/09/25 04:52:55;;;;;;;;;;;;;;;24.04;nan;100552.44;5035497;28;1982;-42
2022/09/25 04:55:23;;;;;;;;;;;;;;;24.02;nan;100549.91;5035389;28;1311;-41
2022/09/25 04:57:51;;;;;;;;;;;;;;;24.04;nan;100557.78;5050576;28;1188;-42
2022/09/25 05:00:29;;;;;;;;;;;;;;;24.04;nan;100553.31;5035167;28;1342;-42
2022/09/25 05:02:55;;;;;;;;;;;;;;;24.06;nan;100539.84;5035451;28;1118;-42
2022/09/25 05:05:29;;;;;;;;;;;;;;;24.02;nan;100544.59;5035180;28;1161;-43
2022/09/25 05:08:00;;;;;;;;;;;;;;;24.03;nan;100540.13;5035275;28;1114;-43
2022/09/25 05:10:28;;;;;;;;;;;;;;;24.03;nan;100540.13;5035113;28;1320;-42
2022/09/25 05:12:58;;;;;;;;;;;;;;;24.00;nan;100546.53;5035230;28;1914;-42
2022/09/25 05:15:27;;;;;;;;;;;;;;;24.03;nan;100546.28;5035088;28;1207;-43
2022/09/25 05:18:04;;;;;;;;;;;;;;;24.00;nan;100546.53;5034863;28;1824;-43
2022/09/25 05:20:31;;;;;;;;;;;;;;;24.01;nan;100542.06;5035148;28;1287;-42
2022/09/25 05:22:58;;;;;;;;;;;;;;;24.00;nan;100551.84;5035232;28;937;-42
2022/09/25 05:25:25;;;;;;;;;;;;;;;24.00;nan;100556.31;5035209;28;1342;-43
2022/09/25 05:27:54;;;;;;;;;;;;;;;23.96;nan;100553.06;5035376;28;1106;-42
2022/09/25 05:30:21;;;;;;;;;;;;;;;23.93;nan;100555.97;5034863;28;1215;-42
2022/09/25 05:32:49;;;;;;;;;;;;;;;23.91;nan;100552.59;5034323;28;1910;-42
2022/09/25 05:35:20;;;;;;;;;;;;;;;23.91;nan;100558.78;5033892;28;1290;-40
2022/09/25 05:37:47;;;;;;;;;;;;;;;23.93;nan;100561.31;5034557;28;1030;-42
2022/09/25 05:40:14;;;;;;;;;;;;;;;23.94;nan;100557.69;5034651;28;1302;-41
2022/09/25 05:42:43;;;;;;;;;;;;;;;23.92;nan;100568.44;5049861;28;974;-41
2022/09/25 05:45:10;;;;;;;;;;;;;;;23.89;nan;100551.91;5035014;28;1814;-41
2022/09/25 05:47:37;;;;;;;;;;;;;;;23.91;nan;100552.59;5034233;28;1712;-42
2022/09/25 05:50:05;;;;;;;;;;;;;;;23.88;nan;100548.38;5048439;28;1411;-41
2022/09/25 05:52:31;;;;;;;;;;;;;;;23.90;nan;100556.22;5054259;28;1983;-41
2022/09/25 05:54:58;;;;;;;;;;;;;;;23.93;nan;100551.50;5054098;28;1309;-43
2022/09/25 05:57:25;;;;;;;;;;;;;;;23.97;nan;100552.09;5035087;28;1009;-38
2022/09/25 05:59:52;;;;;;;;;;;;;;;23.98;nan;100560.94;5034333;28;1221;-41
2022/09/25 06:02:20;;;;;;;;;;;;;;;23.98;nan;100559.13;5034270;28;1037;-41
2022/09/25 06:04:46;;;;;;;;;;;;;;;24.00;nan;100562.50;5034245;28;1330;-42
2022/09/25 06:07:13;;;;;;;;;;;;;;;23.96;nan;100561.06;5044818;28;1020;-41
2022/09/25 06:09:40;;;;;;;;;;;;;;;23.93;nan;100572.78;5053718;28;945;-43
2022/09/25 06:12:06;;;;;;;;;;;;;;;23.95;nan;100565.53;5052806;28;1985;-39
2022/09/25 06:14:36;;;;;;;;;;;;;;;23.96;nan;100571.69;5054139;28;894;-42
2022/09/25 06:17:03;;;;;;;;;;;;;;;23.95;nan;100572.69;5053667;28;1228;-43
2022/09/25 06:19:29;;;;;;;;;;;;;;;23.96;nan;100574.34;5053862;28;977;-42
2022/09/25 06:21:56;;;;;;;;;;;;;;;23.97;nan;100578.72;5053341;28;1212;-42
2022/09/25 06:24:23;;;;;;;;;;;;;;;23.91;nan;100573.88;5053888;28;744;-43
2022/09/25 06:26:50;;;;;;;;;;;;;;;23.93;nan;100579.91;5053460;28;1312;-43
2022/09/25 06:29:16;;;;;;;;;;;;;;;23.97;nan;100578.72;5052685;28;749;-42
2022/09/25 06:31:43;;;;;;;;;;;;;;;23.97;nan;100575.19;5053734;28;1315;-41
2022/09/25 06:34:11;;;;;;;;;;;;;;;23.94;nan;100573.63;5053685;28;1903;-42
2022/09/25 06:36:38;;;;;;;;;;;;;;;23.95;nan;100581.47;5053431;28;1221;-41
2022/09/25 06:39:04;;;;;;;;;;;;;;;23.94;nan;100578.97;5053464;28;686;-42
2022/09/25 06:41:31;;;;;;;;;;;;;;;23.92;nan;100576.41;5053311;28;1302;-42
2022/09/25 06:43:58;;;;;;;;;;;;;;;23.94;nan;100582.47;5053413;28;837;-42
2022/09/25 06:46:25;;;;;;;;;;;;;;;23.98;nan;100580.41;5053374;28;1217;-43
2022/09/25 06:48:58;;;;;;;;;;;;;;;23.97;nan;100588.50;5052404;28;953;-44
2022/09/25 06:51:31;;;;;;;;;;;;;;;23.94;nan;100592.25;5053326;28;1618;-43
2022/09/25 06:53:58;;;;;;;;;;;;;;;23.94;nan;100589.59;5048547;28;1906;-43
2022/09/25 06:56:24;;;;;;;;;;;;;;;23.94;nan;100597.59;5050297;28;1312;-41
2022/09/25 06:58:51;;;;;;;;;;;;;;;23.95;nan;100588.66;5051866;28;1011;-43
2022/09/25 07:01:18;;;;;;;;;;;;;;;23.92;nan;100586.22;5052878;28;1231;-42
2022/09/25 07:03:45;;;;;;;;;;;;;;;23.93;nan;100588.75;5052667;28;1106;-42
2022/09/25 07:06:13;;;;;;;;;;;;;;;23.97;nan;100593.81;5053117;28;1213;-43
2022/09/25 07:08:41;;;;;;;;;;;;;;;23.97;nan;100586.69;5053157;28;1176;-41
2022/09/25 07:11:13;;;;;;;;;;;;;;;23.95;nan;100591.31;5052839;28;1217;-42
2022/09/25 07:13:40;;;;;;;;;;;;;;;23.90;nan;100596.13;5052851;28;1977;-42
2022/09/25 07:16:10;;;;;;;;;;;;;;;23.86;nan;100598.19;5052630;28;1209;-43
2022/09/25 07:18:37;;;;;;;;;;;;;;;23.92;nan;100607.50;5053126;28;1273;-41
2022/09/25 07:21:08;;;;;;;;;;;;;;;23.91;nan;100601.34;5052785;28;1102;-39
2022/09/25 07:23:35;;;;;;;;;;;;;;;23.89;nan;100603.25;5053151;28;1251;-42
2022/09/25 07:26:06;;;;;;;;;;;;;;;23.91;nan;100596.03;5052690;28;1202;-41
2022/09/25 07:28:33;;;;;;;;;;;;;;;23.89;nan;100597.13;5051782;28;1217;-41
2022/09/25 07:31:16;;;;;;;;;;;;;;;23.88;nan;100600.75;5052686;28;1221;-41
2022/09/25 07:33:43;;;;;;;;;;;;;;;23.88;nan;100595.41;5052800;28;1910;-42
2022/09/25 07:36:10;;;;;;;;;;;;;;;23.91;nan;100600.50;5052720;28;1276;-42
2022/09/25 07:38:38;;;;;;;;;;;;;;;23.89;nan;100602.44;5052973;28;1181;-43
2022/09/25 07:41:05;;;;;;;;;;;;;;;23.91;nan;100605.81;5055073;28;1291;-40
2022/09/25 07:43:33;;;;;;;;;;;;;;;23.89;nan;100600.59;5056406;28;1186;-43
2022/09/25 07:46:00;;;;;;;;;;;;;;;23.90;nan;100606.78;5056570;28;1225;-42
2022/09/25 07:48:29;;;;;;;;;;;;;;;23.88;nan;100600.75;5056677;28;1184;-42
2022/09/25 07:51:06;;;;;;;;;;;;;;;23.89;nan;100610.41;5056095;28;1276;-39
2022/09/25 07:53:32;;;;;;;;;;;;;;;23.93;nan;100614.50;5054540;28;1914;-41
2022/09/25 07:56:00;;;;;;;;;;;;;;;23.95;nan;100618.72;5051734;28;1425;-38
2022/09/25 07:58:31;;;;;;;;;;;;;;;23.90;nan;100615.59;5051101;28;1390;-40
2022/09/25 08:00:59;;;;;;;;;;;;;;;23.90;nan;100625.41;5036727;28;1252;-40
2022/09/25 08:03:26;;;;;;;;;;;;;;;23.91;nan;100622.63;5043493;28;1176;-37
2022/09/25 08:06:00;;;;;;;;;;;;;;;23.94;nan;100626.84;5051163;28;1225;-41
2022/09/25 08:08:28;;;;;;;;;;;;;;;23.95;nan;100628.56;5075446;28;1280;-39
2022/09/25 08:11:08;;;;;;;;;;;;;;;23.94;nan;100634.84;5055881;28;1299;-40
2022/09/25 08:13:37;;;;;;;;;;;;;;;23.93;nan;100633.97;5056089;28;1973;-39
2022/09/25 08:16:04;;;;;;;;;;;;;;;23.95;nan;100639.19;5055678;28;1204;-39
2022/09/25 08:18:31;;;;;;;;;;;;;;;23.87;nan;100636.28;5056040;28;1059;-37
2022/09/25 08:21:03;;;;;;;;;;;;;;;23.77;nan;100630.84;5055347;28;1280;-39
2022/09/25 08:23:30;;;;;;;;;;;;;;;23.74;nan;100636.41;5055146;28;1177;-37
2022/09/25 08:25:58;;;;;;;;;;;;;;;23.74;nan;100633.75;5051899;28;1608;-38
2022/09/25 08:28:25;;;;;;;;;;;;;;;23.69;nan;100637.75;5046487;28;1573;-39
2022/09/25 08:30:52;;;;;;;;;;;;;;;23.71;nan;100633.16;5040645;28;1334;-40
2022/09/25 08:33:19;;;;;;;;;;;;;;;23.75;nan;100637.25;5042022;28;1950;-41
2022/09/25 08:35:53;;;;;;;;;;;;;;;23.75;nan;100643.44;5055663;28;1300;-39
2022/09/25 08:38:20;;;;;;;;;;;;;;;23.75;nan;100635.44;5055761;28;1089;-39
2022/09/25 08:41:09;;;;;;;;;;;;;;;23.75;nan;100639.91;5054025;28;1565;-41
2022/09/25 08:43:39;;;;;;;;;;;;;;;23.73;nan;100645.38;5051854;28;1177;-40
2022/09/25 08:49:05;;;;;;;;;;;;;;;23.66;nan;100644.16;5051494;28;1426;-40
2022/09/25 08:51:35;;;;;;;;;;;;;;;23.65;nan;100641.63;5042485;28;1366;-40
2022/09/25 08:54:02;;;;;;;;;;;;;;;23.66;nan;100638.84;5045902;28;1914;-39
2022/09/25 08:56:31;;;;;;;;;;;;;;;23.64;nan;100643.44;5044478;28;1225;-33
2022/09/25 08:59:22;;;;;;;;;;;;;;;23.67;nan;100634.38;5045938;28;1106;-36
2022/09/25 09:01:52;;;;;;;;;;;;;;;23.68;nan;100646.72;5048327;28;1684;-37
2022/09/25 09:04:32;;;;;;;;;;;;;;;23.61;nan;100641.03;5054685;28;1054;-36
2022/09/25 09:07:04;;;;;;;;;;;;;;;23.60;nan;100646.44;5054828;28;1387;-41
2022/09/25 09:09:56;;;;;;;;;;;;;;;23.64;nan;100647.91;5054094;28;2301;-34
2022/09/25 09:12:44;;;;;;;;;;;;;;;23.67;nan;100645.00;5055257;28;1023;-35
2022/09/25 09:15:22;;;;;;;;;;;;;;;23.66;nan;100651.28;5035216;28;1662;-32
2022/09/25 09:17:49;;;;;;;;;;;;;;;23.59;nan;100642.94;5036600;28;1107;-36
2022/09/25 09:20:26;;;;;;;;;;;;;;;23.65;nan;100641.63;5054813;28;1248;-38
2022/09/25 09:22:54;;;;;;;;;;;;;;;23.62;nan;100650.69;5054879;28;1093;-37
2022/09/25 09:25:24;;;;;;;;;;;;;;;23.65;nan;100645.13;5054490;28;1196;-38
2022/09/25 09:28:00;;;;;;;;;;;;;;;23.68;nan;100646.72;5054418;28;1258;-38
2022/09/25 09:30:29;;;;;;;;;;;;;;;23.65;nan;100647.78;5054950;28;1319;-38
2022/09/25 09:33:15;;;;;;;;;;;;;;;23.61;nan;100646.34;5054619;28;1981;-35
2022/09/25 09:35:55;;;;;;;;;;;;;;;23.61;nan;100651.66;5046245;28;1569;-38
2022/09/25 09:38:43;;;;;;;;;;;;;;;23.61;nan;100662.28;5047707;28;1053;-36
2022/09/25 09:41:11;;;;;;;;;;;;;;;23.64;nan;100662.06;5052134;28;1299;-38
2022/09/25 09:43:37;;;;;;;;;;;;;;;23.62;nan;100657.84;5052012;28;1195;-38
2022/09/25 09:46:13;;;;;;;;;;;;;;;23.65;nan;100654.94;5051921;28;1276;-37
2022/09/25 09:48:46;;;;;;;;;;;;;;;23.64;nan;100650.56;5052816;28;1276;-39
2022/09/25 09:51:34;;;;;;;;;;;;;;;23.62;nan;100653.34;5049199;28;1426;-38
2022/09/25 09:54:14;;;;;;;;;;;;;;;23.64;nan;100653.22;5044979;28;1994;-35
2022/09/25 09:56:42;;;;;;;;;;;;;;;23.64;nan;100661.19;5046194;28;1369;-39
2022/09/25 09:59:18;;;;;;;;;;;;;;;23.56;nan;100658.31;5054295;28;1244;-39
2022/09/25 10:01:49;;;;;;;;;;;;;;;23.58;nan;100659.88;5053777;28;1190;-37
2022/09/25 10:04:17;;;;;;;;;;;;;;;23.58;nan;100661.69;5048651;28;1195;-37
2022/09/25 10:06:50;;;;;;;;;;;;;;;23.61;nan;100672.94;5044735;28;1332;-35
2022/09/25 10:09:17;;;;;;;;;;;;;;;23.64;nan;100670.03;5052386;28;1588;-38
2022/09/25 10:11:46;;;;;;;;;;;;;;;23.64;nan;100664.72;5052342;28;1330;-39
2022/09/25 10:14:20;;;;;;;;;;;;;;;23.66;nan;100675.22;5052101;28;1902;-40
2022/09/25 10:16:49;;;;;;;;;;;;;;;23.67;nan;100664.47;5053159;28;1365;-35
2022/09/25 10:19:18;;;;;;;;;;;;;;;23.69;nan;100661.69;5052248;28;1096;-35
2022/09/25 10:21:48;;;;;;;;;;;;;;;23.69;nan;100661.69;5053372;28;1288;-39
2022/09/25 10:24:34;;;;;;;;;;;;;;;23.69;nan;100659.03;5053225;28;1007;-39
2022/09/25 10:27:19;;;;;;;;;;;;;;;23.67;nan;100664.47;5053453;28;1268;-36
2022/09/25 10:29:46;;;;;;;;;;;;;;;23.65;nan;100668.22;5053307;28;1217;-39
2022/09/25 10:32:13;;;;;;;;;;;;;;;23.62;nan;100669.28;5051427;28;1026;-37
2022/09/25 10:34:52;;;;;;;;;;;;;;;23.64;nan;100663.88;5051419;28;1906;-39
2022/09/25 10:37:20;;;;;;;;;;;;;;;23.69;nan;100664.34;5041077;28;1554;-38
2022/09/25 10:40:01;;;;;;;;;;;;;;;23.57;nan;100657.31;5048683;28;1255;-39
2022/09/25 10:42:38;;;;;;;;;;;;;;;23.64;nan;100662.06;5051602;28;1032;-33
2022/09/25 10:45:15;;;;;;;;;;;;;;;23.69;nan;100664.34;5031227;28;1264;-37
2022/09/25 10:50:27;;;;;;;;;;;;;;;23.68;nan;100663.50;5047639;28;1580;-36
2022/09/25 10:52:58;;;;;;;;;;;;;;;23.71;nan;100657.09;5051163;28;1509;-37
2022/09/25 10:55:29;;;;;;;;;;;;;;;23.76;nan;100661.09;5050274;28;1981;-37
2022/09/25 10:58:05;;;;;;;;;;;;;;;23.77;nan;100661.94;5049700;28;1089;-35
2022/09/25 11:00:33;;;;;;;;;;;;;;;23.78;nan;100663.63;5049453;28;1371;-36
2022/09/25 11:03:01;;;;;;;;;;;;;;;23.72;nan;100648.13;5050341;28;975;-35
2022/09/25 11:05:30;;;;;;;;;;;;;;;23.70;nan;100645.63;5050797;28;1272;-36
2022/09/25 11:07:59;;;;;;;;;;;;;;;23.72;nan;100645.47;5051549;28;1051;-40
2022/09/25 11:10:30;;;;;;;;;;;;;;;23.73;nan;100641.88;5052912;28;1169;-39
2022/09/25 11:12:57;;;;;;;;;;;;;;;23.71;nan;100641.16;5053051;28;1031;-38
2022/09/25 11:15:26;;;;;;;;;;;;;;;23.71;nan;100646.47;5054522;28;1922;-38
2022/09/25 11:17:54;;;;;;;;;;;;;;;23.75;nan;100648.75;5055907;28;1156;-40
2022/09/25 11:20:21;;;;;;;;;;;;;;;23.78;nan;100650.31;5063130;28;1318;-37
2022/09/25 11:22:56;;;;;;;;;;;;;;;23.78;nan;100645.84;5074270;28;1053;-38
2022/09/25 11:25:25;;;;;;;;;;;;;;;23.75;nan;100648.75;5055948;28;1367;-40
2022/09/25 11:27:59;;;;;;;;;;;;;;;23.75;nan;100648.75;5054327;28;1212;-39
2022/09/25 11:30:31;;;;;;;;;;;;;;;23.79;nan;100644.03;5045078;28;1577;-36
2022/09/25 11:33:03;;;;;;;;;;;;;;;23.79;nan;100644.03;5050395;28;1112;-37
2022/09/25 11:35:29;;;;;;;;;;;;;;;23.82;nan;100641.97;5055124;28;1910;-39
2022/09/25 11:37:56;;;;;;;;;;;;;;;23.83;nan;100646.31;5054439;28;1258;-36
2022/09/25 11:43:11;;;;;;;;;;;;;;;23.67;nan;100634.38;5047949;28;1047;-42
2022/09/25 11:45:41;;;;;;;;;;;;;;;23.75;nan;100632.78;5055947;28;1407;-43
2022/09/25 11:48:11;;;;;;;;;;;;;;;23.80;nan;100630.59;5055560;28;1400;-43
2022/09/25 11:50:57;;;;;;;;;;;;;;;23.82;nan;100628.69;5055372;28;1442;-41
2022/09/25 11:53:31;;;;;;;;;;;;;;;23.84;nan;100631.22;5056640;28;1984;-42
2022/09/25 11:56:02;;;;;;;;;;;;;;;23.60;nan;100622.53;5050552;28;1580;-42
2022/09/25 11:58:32;;;;;;;;;;;;;;;23.47;nan;100613.84;5045662;28;1041;-42
2022/09/25 12:01:15;;;;;;;;;;;;;;;23.36;nan;100610.16;5036227;28;1287;-42
2022/09/25 12:03:52;;;;;;;;;;;;;;;23.44;nan;100614.91;5045991;28;1087;-44
2022/09/25 12:06:25;;;;;;;;;;;;;;;23.46;nan;100609.47;5075263;28;1343;-43
2022/09/25 12:09:11;;;;;;;;;;;;;;;23.51;nan;100604.63;5071681;28;905;-43
2022/09/25 12:11:46;;;;;;;;;;;;;;;23.60;nan;100611.88;5071031;28;1233;-42
2022/09/25 12:14:18;;;;;;;;;;;;;;;23.64;nan;100603.56;5071919;28;1914;-42
2022/09/25 12:16:57;;;;;;;;;;;;;;;23.68;nan;100601.50;5072407;28;1196;-43
2022/09/25 12:19:25;;;;;;;;;;;;;;;23.70;nan;100594.25;5072613;28;703;-43
2022/09/25 12:22:06;;;;;;;;;;;;;;;23.74;nan;100593.03;5072540;28;1215;-42
2022/09/25 12:24:39;;;;;;;;;;;;;;;23.76;nan;100591.09;5073808;28;957;-43
2022/09/25 12:27:09;;;;;;;;;;;;;;;23.78;nan;100594.47;5072697;28;1315;-43
2022/09/25 12:29:42;;;;;;;;;;;;;;;23.80;nan;100592.53;5073387;28;636;-43
2022/09/25 12:32:19;;;;;;;;;;;;;;;23.82;nan;100601.22;5073772;28;1049;-43
2022/09/25 12:35:09;;;;;;;;;;;;;;;23.80;nan;100590.69;5074130;28;1973;-43
2022/09/25 12:37:49;;;;;;;;;;;;;;;23.79;nan;100585.53;5075126;28;1746;-41
2022/09/25 12:40:21;;;;;;;;;;;;;;;23.79;nan;100590.84;5075538;28;1276;-42
2022/09/25 12:42:48;;;;;;;;;;;;;;;23.81;nan;100589.75;5075328;28;1015;-42
2022/09/25 12:45:18;;;;;;;;;;;;;;;23.82;nan;100591.44;5075142;28;1322;-41
2022/09/25 12:47:50;;;;;;;;;;;;;;;23.80;nan;100587.22;5075600;28;1035;-42
2022/09/25 12:50:29;;;;;;;;;;;;;;;23.82;nan;100586.13;5075123;28;1221;-42
2022/09/25 12:53:25;;;;;;;;;;;;;;;23.85;nan;100574.38;5075290;28;1134;-42
2022/09/25 12:56:02;;;;;;;;;;;;;;;23.83;nan;100579.81;5078276;28;1906;-43
2022/09/25 12:58:49;;;;;;;;;;;;;;;23.85;nan;100579.72;5075572;28;1170;-43
2022/09/25 13:01:39;;;;;;;;;;;;;;;23.85;nan;100579.72;5074797;28;2329;-41
2022/09/25 13:04:17;;;;;;;;;;;;;;;23.85;nan;100580.56;5074914;28;684;-43
2022/09/25 13:07:02;;;;;;;;;;;;;;;23.88;nan;100584.78;5074814;28;1193;-42
2022/09/25 13:09:34;;;;;;;;;;;;;;;23.88;nan;100580.31;5075290;28;1069;-42
2022/09/25 13:12:07;;;;;;;;;;;;;;;23.88;nan;100582.97;5073916;28;1204;-44
2022/09/25 13:14:41;;;;;;;;;;;;;;;23.87;nan;100581.25;5075078;28;1906;-41
2022/09/25 13:17:12;;;;;;;;;;;;;;;23.88;nan;100579.47;5074677;28;1038;-43
2022/09/25 13:19:39;;;;;;;;;;;;;;;23.87;nan;100573.28;5074884;28;901;-43
2022/09/25 13:22:08;;;;;;;;;;;;;;;23.88;nan;100575.00;5074521;28;1404;-42
2022/09/25 13:24:56;;;;;;;;;;;;;;;23.88;nan;100571.47;5074479;28;749;-43
2022/09/25 13:27:24;;;;;;;;;;;;;;;23.88;nan;100574.13;5074915;28;970;-44
2022/09/25 13:30:00;;;;;;;;;;;;;;;23.87;nan;100565.31;5074746;28;1266;-43
2022/09/25 13:32:33;;;;;;;;;;;;;;;23.88;nan;100572.31;5074749;28;1094;-43
2022/09/25 13:35:01;;;;;;;;;;;;;;;23.87;nan;100567.13;5074367;28;1913;-43
2022/09/25 13:37:31;;;;;;;;;;;;;;;23.86;nan;100566.25;5074053;28;1087;-42
2022/09/25 13:42:45;;;;;;;;;;;;;;;23.87;nan;100556.47;5074813;28;1116;-43
2022/09/25 13:45:21;;;;;;;;;;;;;;;23.87;nan;100556.47;5074267;28;1207;-43
2022/09/25 13:47:58;;;;;;;;;;;;;;;23.86;nan;100552.97;5074175;28;1056;-41
2022/09/25 13:50:33;;;;;;;;;;;;;;;23.84;nan;100552.25;5073907;28;1377;-42